sensor_id;sensor_type;location;lat;lon;timestamp;temperature;humidity
7516;DHT22;3799;47.184;8.538;2024-01-10T00:01:06;-0.70;99.90
7516;DHT22;3799;47.184;8.538;2024-01-10T00:03:33;-0.70;99.90
7516;DHT22;3799;47.184;8.538;2024-01-10T00:06:00;-0.70;99.90
7516;DHT22;3799;47.184;8.538;2024-01-10T00:08:31;-0.70;99.90
7516;DHT22;3799;47.184;8.538;2024-01-10T00:11:01;-0.80;99.90
7516;DHT22;3799;47.184;8.538;2024-01-10T00:13:30;-0.70;99.90
7516;DHT22;3799;47.184;8.538;2024-01-10T00:15:58;-1.00;99.90
7516;DHT22;3799;47.184;8.538;2024-01-10T00:18:25;-0.70;99.90
7516;DHT22;3799;47.184;8.538;2024-01-10T00:20:54;-0.90;99.90
7516;DHT22;3799;47.184;8.538;2024-01-10T00:23:22;-0.90;99.90
7516;DHT22;3799;47.184;8.538;2024-01-10T00:25:49;-0.80;99.90
7516;DHT22;3799;47.184;8.538;2024-01-10T00:28:17;-0.90;99.90
7516;DHT22;3799;47.184;8.538;2024-01-10T00:30:46;-0.70;99.90
7516;DHT22;3799;47.184;8.538;2024-01-10T00:33:17;-1.00;99.90
7516;DHT22;3799;47.184;8.538;2024-01-10T00:35:44;-1.00;99.90
7516;DHT22;3799;47.184;8.538;2024-01-10T00:38:13;-1.00;99.90
7516;DHT22;3799;47.184;8.538;2024-01-10T00:40:40;-0.90;99.90
7516;DHT22;3799;47.184;8.538;2024-01-10T00:43:07;-0.70;99.90
7516;DHT22;3799;47.184;8.538;2024-01-10T00:45:35;-0.90;99.90
7516;DHT22;3799;47.184;8.538;2024-01-10T00:48:02;-0.60;99.90
7516;DHT22;3799;47.184;8.538;2024-01-10T00:50:32;-0.90;99.90
7516;DHT22;3799;47.184;8.538;2024-01-10T00:52:59;-0.80;99.90
7516;DHT22;3799;47.184;8.538;2024-01-10T00:55:26;-0.80;99.90
7516;DHT22;3799;47.184;8.538;2024-01-10T00:57:53;-1.00;99.90
7516;DHT22;3799;47.184;8.538;2024-01-10T01:00:20;-1.00;99.90
7516;DHT22;3799;47.184;8.538;2024-01-10T01:02:48;-0.80;99.90
7516;DHT22;3799;47.184;8.538;2024-01-10T01:05:15;-0.90;99.90
7516;DHT22;3799;47.184;8.538;2024-01-10T01:07:45;-1.00;99.90
7516;DHT22;3799;47.184;8.538;2024-01-10T01:10:13;-1.00;99.90
7516;DHT22;3799;47.184;8.538;2024-01-10T01:12:40;-1.00;99.90
7516;DHT22;3799;47.184;8.538;2024-01-10T01:15:07;-0.80;99.90
7516;DHT22;3799;47.184;8.538;2024-01-10T01:17:34;-0.70;99.90
7516;DHT22;3799;47.184;8.538;2024-01-10T01:20:01;-0.70;99.90
7516;DHT22;3799;47.184;8.538;2024-01-10T01:22:32;-0.50;99.90
7516;DHT22;3799;47.184;8.538;2024-01-10T01:24:59;-0.70;99.90
7516;DHT22;3799;47.184;8.538;2024-01-10T01:27:26;-0.60;99.90
7516;DHT22;3799;47.184;8.538;2024-01-10T01:29:53;-0.70;99.90
7516;DHT22;3799;47.184;8.538;2024-01-10T01:32:20;-0.80;99.90
7516;DHT22;3799;47.184;8.538;2024-01-10T01:34:51;-0.70;99.90
7516;DHT22;3799;47.184;8.538;2024-01-10T01:37:18;-0.70;99.90
7516;DHT22;3799;47.184;8.538;2024-01-10T01:39:45;-0.70;99.90
7516;DHT22;3799;47.184;8.538;2024-01-10T01:42:12;-0.60;99.90
7516;DHT22;3799;47.184;8.538;2024-01-10T01:44:39;-0.70;99.90
7516;DHT22;3799;47.184;8.538;2024-01-10T01:47:07;-0.80;99.90
7516;DHT22;3799;47.184;8.538;2024-01-10T01:49:34;-0.80;99.90
7516;DHT22;3799;47.184;8.538;2024-01-10T01:52:02;-1.00;99.90
7516;DHT22;3799;47.184;8.538;2024-01-10T01:54:31;-0.80;99.90
7516;DHT22;3799;47.184;8.538;2024-01-10T01:56:59;-1.10;99.90
7516;DHT22;3799;47.184;8.538;2024-01-10T01:59:27;-1.10;99.90
7516;DHT22;3799;47.184;8.538;2024-01-10T02:01:55;-0.90;99.90
7516;DHT22;3799;47.184;8.538;2024-01-10T02:04:25;-1.00;99.90
7516;DHT22;3799;47.184;8.538;2024-01-10T02:06:55;-0.90;99.90
7516;DHT22;3799;47.184;8.538;2024-01-10T02:09:22;-1.30;99.90
7516;DHT22;3799;47.184;8.538;2024-01-10T02:11:49;-1.00;99.90
7516;DHT22;3799;47.184;8.538;2024-01-10T02:14:18;-1.10;99.90
7516;DHT22;3799;47.184;8.538;2024-01-10T02:16:45;-1.00;99.90
7516;DHT22;3799;47.184;8.538;2024-01-10T02:19:23;-1.10;99.90
7516;DHT22;3799;47.184;8.538;2024-01-10T02:21:50;-0.90;99.90
7516;DHT22;3799;47.184;8.538;2024-01-10T02:24:17;-1.10;99.90
7516;DHT22;3799;47.184;8.538;2024-01-10T02:26:45;-1.00;99.90
7516;DHT22;3799;47.184;8.538;2024-01-10T02:29:13;-0.80;99.90
7516;DHT22;3799;47.184;8.538;2024-01-10T02:31:40;-1.00;99.90
7516;DHT22;3799;47.184;8.538;2024-01-10T02:34:07;-1.00;99.90
7516;DHT22;3799;47.184;8.538;2024-01-10T02:36:35;-1.00;99.90
7516;DHT22;3799;47.184;8.538;2024-01-10T02:39:02;-1.10;99.90
7516;DHT22;3799;47.184;8.538;2024-01-10T02:41:29;-1.10;99.90
7516;DHT22;3799;47.184;8.538;2024-01-10T02:43:56;-0.90;99.90
7516;DHT22;3799;47.184;8.538;2024-01-10T02:46:26;-1.00;99.90
7516;DHT22;3799;47.184;8.538;2024-01-10T02:48:56;-0.90;99.90
7516;DHT22;3799;47.184;8.538;2024-01-10T02:51:26;-0.90;99.90
7516;DHT22;3799;47.184;8.538;2024-01-10T02:53:53;-1.00;99.90
7516;DHT22;3799;47.184;8.538;2024-01-10T02:56:20;-0.90;99.90
7516;DHT22;3799;47.184;8.538;2024-01-10T02:58:48;-0.90;99.90
7516;DHT22;3799;47.184;8.538;2024-01-10T03:01:15;-0.70;99.90
7516;DHT22;3799;47.184;8.538;2024-01-10T03:03:43;-0.90;99.90
7516;DHT22;3799;47.184;8.538;2024-01-10T03:06:10;-0.90;99.90
7516;DHT22;3799;47.184;8.538;2024-01-10T03:08:37;-0.70;99.90
7516;DHT22;3799;47.184;8.538;2024-01-10T03:11:04;-0.80;99.90
7516;DHT22;3799;47.184;8.538;2024-01-10T03:13:32;-1.00;99.90
7516;DHT22;3799;47.184;8.538;2024-01-10T03:15:59;-0.90;99.90
7516;DHT22;3799;47.184;8.538;2024-01-10T03:18:26;-0.90;99.90
7516;DHT22;3799;47.184;8.538;2024-01-10T03:20:54;-1.10;99.90
7516;DHT22;3799;47.184;8.538;2024-01-10T03:23:21;-0.90;99.90
7516;DHT22;3799;47.184;8.538;2024-01-10T03:25:49;-1.10;99.90
7516;DHT22;3799;47.184;8.538;2024-01-10T03:28:16;-1.00;99.90
7516;DHT22;3799;47.184;8.538;2024-01-10T03:30:44;-1.10;99.90
7516;DHT22;3799;47.184;8.538;2024-01-10T03:33:12;-1.10;99.90
7516;DHT22;3799;47.184;8.538;2024-01-10T03:35:39;-1.10;99.90
7516;DHT22;3799;47.184;8.538;2024-01-10T03:38:07;-1.00;99.90
7516;DHT22;3799;47.184;8.538;2024-01-10T03:40:34;-1.20;99.90
7516;DHT22;3799;47.184;8.538;2024-01-10T03:43:01;-1.20;99.90
7516;DHT22;3799;47.184;8.538;2024-01-10T03:45:28;-1.20;99.90
7516;DHT22;3799;47.184;8.538;2024-01-10T03:47:56;-1.00;99.90
7516;DHT22;3799;47.184;8.538;2024-01-10T03:50:23;-1.20;99.90
7516;DHT22;3799;47.184;8.538;2024-01-10T03:52:51;-1.10;99.90
7516;DHT22;3799;47.184;8.538;2024-01-10T03:55:21;-1.10;99.90
7516;DHT22;3799;47.184;8.538;2024-01-10T03:57:49;-1.10;99.90
7516;DHT22;3799;47.184;8.538;2024-01-10T04:00:16;-1.10;99.90
7516;DHT22;3799;47.184;8.538;2024-01-10T04:02:43;-1.00;99.90
7516;DHT22;3799;47.184;8.538;2024-01-10T04:05:11;-1.10;99.90
7516;DHT22;3799;47.184;8.538;2024-01-10T04:07:40;-1.00;99.90
7516;DHT22;3799;47.184;8.538;2024-01-10T04:10:11;-1.10;99.90
7516;DHT22;3799;47.184;8.538;2024-01-10T04:12:42;-1.10;99.90
7516;DHT22;3799;47.184;8.538;2024-01-10T04:15:10;-1.00;99.90
7516;DHT22;3799;47.184;8.538;2024-01-10T04:17:37;-1.00;99.90
7516;DHT22;3799;47.184;8.538;2024-01-10T04:20:05;-1.10;99.90
7516;DHT22;3799;47.184;8.538;2024-01-10T04:22:33;-1.00;99.90
7516;DHT22;3799;47.184;8.538;2024-01-10T04:25:03;-1.10;99.90
7516;DHT22;3799;47.184;8.538;2024-01-10T04:27:31;-1.10;99.90
7516;DHT22;3799;47.184;8.538;2024-01-10T04:29:58;-0.90;99.90
7516;DHT22;3799;47.184;8.538;2024-01-10T04:32:26;-1.00;99.90
7516;DHT22;3799;47.184;8.538;2024-01-10T04:34:53;-0.90;99.90
7516;DHT22;3799;47.184;8.538;2024-01-10T04:37:20;-1.20;99.90
7516;DHT22;3799;47.184;8.538;2024-01-10T04:39:47;-1.20;99.90
7516;DHT22;3799;47.184;8.538;2024-01-10T04:42:18;-1.30;99.90
7516;DHT22;3799;47.184;8.538;2024-01-10T04:44:45;-1.20;99.90
7516;DHT22;3799;47.184;8.538;2024-01-10T04:47:12;-1.00;99.90
7516;DHT22;3799;47.184;8.538;2024-01-10T04:49:40;-0.80;99.90
7516;DHT22;3799;47.184;8.538;2024-01-10T04:52:07;-0.90;99.90
7516;DHT22;3799;47.184;8.538;2024-01-10T04:54:34;-0.80;99.90
7516;DHT22;3799;47.184;8.538;2024-01-10T04:57:02;-0.80;99.90
7516;DHT22;3799;47.184;8.538;2024-01-10T04:59:29;-0.60;99.90
7516;DHT22;3799;47.184;8.538;2024-01-10T05:01:56;-0.70;99.90
7516;DHT22;3799;47.184;8.538;2024-01-10T05:04:23;-0.80;99.90
7516;DHT22;3799;47.184;8.538;2024-01-10T05:06:50;-0.80;99.90
7516;DHT22;3799;47.184;8.538;2024-01-10T05:09:18;-0.70;99.90
7516;DHT22;3799;47.184;8.538;2024-01-10T05:11:45;-0.60;99.90
7516;DHT22;3799;47.184;8.538;2024-01-10T05:14:18;-0.50;99.90
7516;DHT22;3799;47.184;8.538;2024-01-10T05:16:48;-0.50;99.90
7516;DHT22;3799;47.184;8.538;2024-01-10T05:19:16;-0.70;99.90
7516;DHT22;3799;47.184;8.538;2024-01-10T05:21:43;-0.50;99.90
7516;DHT22;3799;47.184;8.538;2024-01-10T05:24:10;-0.60;99.90
7516;DHT22;3799;47.184;8.538;2024-01-10T05:26:37;-0.70;99.90
7516;DHT22;3799;47.184;8.538;2024-01-10T05:29:04;-0.90;99.90
7516;DHT22;3799;47.184;8.538;2024-01-10T05:31:31;-1.00;99.90
7516;DHT22;3799;47.184;8.538;2024-01-10T05:33:58;-0.80;99.90
7516;DHT22;3799;47.184;8.538;2024-01-10T05:36:26;-1.00;99.90
7516;DHT22;3799;47.184;8.538;2024-01-10T05:38:53;-0.80;99.90
7516;DHT22;3799;47.184;8.538;2024-01-10T05:41:20;-1.00;99.90
7516;DHT22;3799;47.184;8.538;2024-01-10T05:43:47;-1.00;99.90
7516;DHT22;3799;47.184;8.538;2024-01-10T05:46:15;-1.10;99.90
7516;DHT22;3799;47.184;8.538;2024-01-10T05:48:44;-1.10;99.90
7516;DHT22;3799;47.184;8.538;2024-01-10T05:51:11;-1.00;99.90
7516;DHT22;3799;47.184;8.538;2024-01-10T05:53:39;-1.10;99.90
7516;DHT22;3799;47.184;8.538;2024-01-10T05:56:07;-1.10;99.90
7516;DHT22;3799;47.184;8.538;2024-01-10T05:58:34;-1.20;99.90
7516;DHT22;3799;47.184;8.538;2024-01-10T06:01:02;-1.10;99.90
7516;DHT22;3799;47.184;8.538;2024-01-10T06:03:30;-1.10;99.90
7516;DHT22;3799;47.184;8.538;2024-01-10T06:05:57;-1.00;99.90
7516;DHT22;3799;47.184;8.538;2024-01-10T06:08:25;-0.80;99.90
7516;DHT22;3799;47.184;8.538;2024-01-10T06:10:52;-1.00;99.90
7516;DHT22;3799;47.184;8.538;2024-01-10T06:13:20;-0.90;99.90
7516;DHT22;3799;47.184;8.538;2024-01-10T06:15:47;-1.20;99.90
7516;DHT22;3799;47.184;8.538;2024-01-10T06:18:14;-0.90;99.90
7516;DHT22;3799;47.184;8.538;2024-01-10T06:20:42;-0.90;99.90
7516;DHT22;3799;47.184;8.538;2024-01-10T06:23:09;-0.80;99.90
7516;DHT22;3799;47.184;8.538;2024-01-10T06:25:37;-0.90;99.90
7516;DHT22;3799;47.184;8.538;2024-01-10T06:28:04;-1.00;99.90
7516;DHT22;3799;47.184;8.538;2024-01-10T06:30:32;-0.90;99.90
7516;DHT22;3799;47.184;8.538;2024-01-10T06:32:59;-1.00;99.90
7516;DHT22;3799;47.184;8.538;2024-01-10T06:35:26;-1.10;99.90
7516;DHT22;3799;47.184;8.538;2024-01-10T06:37:54;-1.00;99.90
7516;DHT22;3799;47.184;8.538;2024-01-10T06:40:21;-1.00;99.90
7516;DHT22;3799;47.184;8.538;2024-01-10T06:42:49;-0.90;99.90
7516;DHT22;3799;47.184;8.538;2024-01-10T06:45:16;-1.00;99.90
7516;DHT22;3799;47.184;8.538;2024-01-10T06:47:46;-0.90;99.90
7516;DHT22;3799;47.184;8.538;2024-01-10T06:50:14;-0.90;99.90
7516;DHT22;3799;47.184;8.538;2024-01-10T06:52:45;-1.00;99.90
7516;DHT22;3799;47.184;8.538;2024-01-10T06:55:12;-0.80;99.90
7516;DHT22;3799;47.184;8.538;2024-01-10T06:57:39;-0.90;99.90
7516;DHT22;3799;47.184;8.538;2024-01-10T07:00:09;-0.70;99.90
7516;DHT22;3799;47.184;8.538;2024-01-10T07:02:38;-0.70;99.90
7516;DHT22;3799;47.184;8.538;2024-01-10T07:05:08;-0.60;99.90
7516;DHT22;3799;47.184;8.538;2024-01-10T07:07:41;-0.80;99.90
7516;DHT22;3799;47.184;8.538;2024-01-10T07:10:09;-0.70;99.90
7516;DHT22;3799;47.184;8.538;2024-01-10T07:12:36;-0.50;99.90
7516;DHT22;3799;47.184;8.538;2024-01-10T07:15:04;-0.40;99.90
7516;DHT22;3799;47.184;8.538;2024-01-10T07:17:31;-0.60;99.90
7516;DHT22;3799;47.184;8.538;2024-01-10T07:19:59;-0.60;99.90
7516;DHT22;3799;47.184;8.538;2024-01-10T07:22:26;-0.40;99.90
7516;DHT22;3799;47.184;8.538;2024-01-10T07:24:53;-0.40;99.90
7516;DHT22;3799;47.184;8.538;2024-01-10T07:27:21;-0.30;99.90
7516;DHT22;3799;47.184;8.538;2024-01-10T07:29:48;-0.10;99.90
7516;DHT22;3799;47.184;8.538;2024-01-10T07:32:15;-0.30;99.90
7516;DHT22;3799;47.184;8.538;2024-01-10T07:34:42;-0.10;99.90
7516;DHT22;3799;47.184;8.538;2024-01-10T07:37:13;-0.10;99.90
7516;DHT22;3799;47.184;8.538;2024-01-10T07:39:40;0.00;99.90
7516;DHT22;3799;47.184;8.538;2024-01-10T07:42:07;0.10;99.90
7516;DHT22;3799;47.184;8.538;2024-01-10T07:44:35;0.20;99.90
7516;DHT22;3799;47.184;8.538;2024-01-10T07:47:02;0.30;99.90
7516;DHT22;3799;47.184;8.538;2024-01-10T07:49:29;0.40;99.90
7516;DHT22;3799;47.184;8.538;2024-01-10T07:51:57;0.50;99.90
7516;DHT22;3799;47.184;8.538;2024-01-10T07:54:24;0.70;99.90
7516;DHT22;3799;47.184;8.538;2024-01-10T07:56:51;0.50;99.90
7516;DHT22;3799;47.184;8.538;2024-01-10T07:59:20;0.40;99.90
7516;DHT22;3799;47.184;8.538;2024-01-10T08:01:55;0.70;99.90
7516;DHT22;3799;47.184;8.538;2024-01-10T08:04:26;0.70;99.90
7516;DHT22;3799;47.184;8.538;2024-01-10T08:06:54;0.70;99.90
7516;DHT22;3799;47.184;8.538;2024-01-10T08:09:22;0.50;99.90
7516;DHT22;3799;47.184;8.538;2024-01-10T08:11:52;0.80;99.90
7516;DHT22;3799;47.184;8.538;2024-01-10T08:14:20;0.50;99.90
7516;DHT22;3799;47.184;8.538;2024-01-10T08:16:47;0.80;99.90
7516;DHT22;3799;47.184;8.538;2024-01-10T08:19:15;0.90;99.90
7516;DHT22;3799;47.184;8.538;2024-01-10T08:21:42;0.60;99.90
7516;DHT22;3799;47.184;8.538;2024-01-10T08:24:09;1.00;99.90
7516;DHT22;3799;47.184;8.538;2024-01-10T08:26:36;0.70;99.90
7516;DHT22;3799;47.184;8.538;2024-01-10T08:29:04;0.70;99.90
7516;DHT22;3799;47.184;8.538;2024-01-10T08:31:32;0.80;99.90
7516;DHT22;3799;47.184;8.538;2024-01-10T08:34:08;0.80;99.90
7516;DHT22;3799;47.184;8.538;2024-01-10T08:36:36;1.20;99.90
7516;DHT22;3799;47.184;8.538;2024-01-10T08:39:03;1.00;99.90
7516;DHT22;3799;47.184;8.538;2024-01-10T08:41:31;0.90;99.90
7516;DHT22;3799;47.184;8.538;2024-01-10T08:43:59;0.80;99.90
7516;DHT22;3799;47.184;8.538;2024-01-10T08:46:27;0.90;99.90
7516;DHT22;3799;47.184;8.538;2024-01-10T08:48:54;0.80;99.90
7516;DHT22;3799;47.184;8.538;2024-01-10T08:51:23;0.80;99.90
7516;DHT22;3799;47.184;8.538;2024-01-10T08:53:51;0.60;99.90
7516;DHT22;3799;47.184;8.538;2024-01-10T08:56:18;1.00;99.90
7516;DHT22;3799;47.184;8.538;2024-01-10T08:58:47;1.10;99.90
7516;DHT22;3799;47.184;8.538;2024-01-10T09:01:14;1.00;99.90
7516;DHT22;3799;47.184;8.538;2024-01-10T09:03:41;1.20;99.90
7516;DHT22;3799;47.184;8.538;2024-01-10T09:06:08;1.10;99.90
7516;DHT22;3799;47.184;8.538;2024-01-10T09:08:38;1.20;99.90
7516;DHT22;3799;47.184;8.538;2024-01-10T09:11:06;1.40;99.90
7516;DHT22;3799;47.184;8.538;2024-01-10T09:13:33;1.30;99.90
7516;DHT22;3799;47.184;8.538;2024-01-10T09:16:01;1.40;99.90
7516;DHT22;3799;47.184;8.538;2024-01-10T09:18:29;1.40;99.90
7516;DHT22;3799;47.184;8.538;2024-01-10T09:20:56;1.50;99.90
7516;DHT22;3799;47.184;8.538;2024-01-10T09:23:24;1.60;99.90
7516;DHT22;3799;47.184;8.538;2024-01-10T09:25:51;1.50;99.90
7516;DHT22;3799;47.184;8.538;2024-01-10T09:28:18;1.80;99.90
7516;DHT22;3799;47.184;8.538;2024-01-10T09:30:45;1.50;99.90
7516;DHT22;3799;47.184;8.538;2024-01-10T09:33:13;1.60;99.90
7516;DHT22;3799;47.184;8.538;2024-01-10T09:35:40;1.70;99.90
7516;DHT22;3799;47.184;8.538;2024-01-10T09:38:08;1.70;99.90
7516;DHT22;3799;47.184;8.538;2024-01-10T09:40:36;1.70;99.90
7516;DHT22;3799;47.184;8.538;2024-01-10T09:43:04;1.70;99.90
7516;DHT22;3799;47.184;8.538;2024-01-10T09:45:35;1.90;99.90
7516;DHT22;3799;47.184;8.538;2024-01-10T09:48:04;1.90;99.90
7516;DHT22;3799;47.184;8.538;2024-01-10T09:50:31;2.00;99.90
7516;DHT22;3799;47.184;8.538;2024-01-10T09:53:05;2.00;99.90
7516;DHT22;3799;47.184;8.538;2024-01-10T09:55:35;1.90;99.90
7516;DHT22;3799;47.184;8.538;2024-01-10T09:58:06;2.00;99.90
7516;DHT22;3799;47.184;8.538;2024-01-10T10:00:36;2.00;99.90
7516;DHT22;3799;47.184;8.538;2024-01-10T10:03:08;1.80;99.90
7516;DHT22;3799;47.184;8.538;2024-01-10T10:05:39;1.90;99.90
7516;DHT22;3799;47.184;8.538;2024-01-10T10:08:09;2.10;99.90
7516;DHT22;3799;47.184;8.538;2024-01-10T10:10:37;2.10;99.90
7516;DHT22;3799;47.184;8.538;2024-01-10T10:13:10;2.30;99.90
7516;DHT22;3799;47.184;8.538;2024-01-10T10:16:01;1.90;99.90
7516;DHT22;3799;47.184;8.538;2024-01-10T10:18:29;1.90;99.90
7516;DHT22;3799;47.184;8.538;2024-01-10T10:23:38;2.00;99.90
7516;DHT22;3799;47.184;8.538;2024-01-10T10:26:18;2.10;99.90
7516;DHT22;3799;47.184;8.538;2024-01-10T10:28:48;2.10;99.90
7516;DHT22;3799;47.184;8.538;2024-01-10T10:31:17;2.20;99.90
7516;DHT22;3799;47.184;8.538;2024-01-10T10:33:45;2.20;99.90
7516;DHT22;3799;47.184;8.538;2024-01-10T10:36:16;2.60;99.90
7516;DHT22;3799;47.184;8.538;2024-01-10T10:38:44;2.70;99.90
7516;DHT22;3799;47.184;8.538;2024-01-10T10:41:11;2.40;99.90
7516;DHT22;3799;47.184;8.538;2024-01-10T10:43:39;2.60;99.90
7516;DHT22;3799;47.184;8.538;2024-01-10T10:46:09;2.40;99.90
7516;DHT22;3799;47.184;8.538;2024-01-10T10:48:43;2.30;99.90
7516;DHT22;3799;47.184;8.538;2024-01-10T10:51:33;2.40;99.90
7516;DHT22;3799;47.184;8.538;2024-01-10T10:54:04;2.30;99.90
7516;DHT22;3799;47.184;8.538;2024-01-10T10:56:33;2.20;99.90
7516;DHT22;3799;47.184;8.538;2024-01-10T10:59:03;2.40;99.90
7516;DHT22;3799;47.184;8.538;2024-01-10T11:01:31;2.20;99.90
7516;DHT22;3799;47.184;8.538;2024-01-10T11:03:59;2.20;99.90
7516;DHT22;3799;47.184;8.538;2024-01-10T11:06:27;2.20;99.90
7516;DHT22;3799;47.184;8.538;2024-01-10T11:09:02;2.00;99.90
7516;DHT22;3799;47.184;8.538;2024-01-10T11:12:43;1.90;99.90
7516;DHT22;3799;47.184;8.538;2024-01-10T11:23:45;2.30;99.90
7516;DHT22;3799;47.184;8.538;2024-01-10T11:26:15;2.40;99.90
7516;DHT22;3799;47.184;8.538;2024-01-10T11:28:43;2.60;99.90
7516;DHT22;3799;47.184;8.538;2024-01-10T11:31:13;2.70;99.90
7516;DHT22;3799;47.184;8.538;2024-01-10T11:33:41;2.90;99.90
7516;DHT22;3799;47.184;8.538;2024-01-10T11:36:15;2.80;99.90
7516;DHT22;3799;47.184;8.538;2024-01-10T11:41:32;3.00;99.90
7516;DHT22;3799;47.184;8.538;2024-01-10T11:46:48;3.10;99.90
7516;DHT22;3799;47.184;8.538;2024-01-10T11:49:17;3.00;99.90
7516;DHT22;3799;47.184;8.538;2024-01-10T11:51:46;3.00;99.90
7516;DHT22;3799;47.184;8.538;2024-01-10T11:57:08;3.10;99.90
7516;DHT22;3799;47.184;8.538;2024-01-10T11:59:36;3.60;99.90
7516;DHT22;3799;47.184;8.538;2024-01-10T12:02:04;3.40;99.90
7516;DHT22;3799;47.184;8.538;2024-01-10T12:04:32;3.50;99.90
7516;DHT22;3799;47.184;8.538;2024-01-10T12:07:13;3.40;99.90
7516;DHT22;3799;47.184;8.538;2024-01-10T12:09:41;3.40;99.90
7516;DHT22;3799;47.184;8.538;2024-01-10T12:12:09;3.20;99.90
7516;DHT22;3799;47.184;8.538;2024-01-10T12:14:39;3.10;99.90
7516;DHT22;3799;47.184;8.538;2024-01-10T12:17:07;3.20;99.90
7516;DHT22;3799;47.184;8.538;2024-01-10T12:19:39;3.20;99.90
7516;DHT22;3799;47.184;8.538;2024-01-10T12:22:07;3.20;99.90
7516;DHT22;3799;47.184;8.538;2024-01-10T12:24:47;3.40;99.90
7516;DHT22;3799;47.184;8.538;2024-01-10T12:27:17;3.20;99.90
7516;DHT22;3799;47.184;8.538;2024-01-10T12:29:48;3.10;99.90
7516;DHT22;3799;47.184;8.538;2024-01-10T12:32:17;3.00;99.90
7516;DHT22;3799;47.184;8.538;2024-01-10T12:34:45;3.00;99.90
7516;DHT22;3799;47.184;8.538;2024-01-10T12:37:12;3.10;99.90
7516;DHT22;3799;47.184;8.538;2024-01-10T12:39:39;2.80;99.90
7516;DHT22;3799;47.184;8.538;2024-01-10T12:42:07;2.80;99.90
7516;DHT22;3799;47.184;8.538;2024-01-10T12:44:36;3.00;99.90
7516;DHT22;3799;47.184;8.538;2024-01-10T12:47:03;2.80;99.90
7516;DHT22;3799;47.184;8.538;2024-01-10T12:49:31;2.70;99.90
7516;DHT22;3799;47.184;8.538;2024-01-10T12:51:58;2.80;99.90
7516;DHT22;3799;47.184;8.538;2024-01-10T12:54:26;2.80;99.90
7516;DHT22;3799;47.184;8.538;2024-01-10T12:56:53;2.90;99.90
7516;DHT22;3799;47.184;8.538;2024-01-10T12:59:20;2.90;99.90
7516;DHT22;3799;47.184;8.538;2024-01-10T13:01:47;2.60;99.90
7516;DHT22;3799;47.184;8.538;2024-01-10T13:04:15;2.50;99.90
7516;DHT22;3799;47.184;8.538;2024-01-10T13:06:43;2.80;99.90
7516;DHT22;3799;47.184;8.538;2024-01-10T13:09:10;2.60;99.90
7516;DHT22;3799;47.184;8.538;2024-01-10T13:11:37;2.60;99.90
7516;DHT22;3799;47.184;8.538;2024-01-10T13:14:04;2.60;99.90
7516;DHT22;3799;47.184;8.538;2024-01-10T13:16:32;2.60;99.90
7516;DHT22;3799;47.184;8.538;2024-01-10T13:19:15;2.40;99.90
7516;DHT22;3799;47.184;8.538;2024-01-10T13:21:42;2.10;99.90
7516;DHT22;3799;47.184;8.538;2024-01-10T13:24:09;2.40;99.90
7516;DHT22;3799;47.184;8.538;2024-01-10T13:26:36;2.00;99.90
7516;DHT22;3799;47.184;8.538;2024-01-10T13:29:03;2.10;99.90
7516;DHT22;3799;47.184;8.538;2024-01-10T13:31:31;2.10;99.90
7516;DHT22;3799;47.184;8.538;2024-01-10T13:33:59;2.20;99.90
7516;DHT22;3799;47.184;8.538;2024-01-10T13:36:26;2.10;99.90
7516;DHT22;3799;47.184;8.538;2024-01-10T13:38:54;1.90;99.90
7516;DHT22;3799;47.184;8.538;2024-01-10T13:41:22;1.90;99.90
7516;DHT22;3799;47.184;8.538;2024-01-10T13:43:49;2.00;99.90
7516;DHT22;3799;47.184;8.538;2024-01-10T13:46:16;2.00;99.90
7516;DHT22;3799;47.184;8.538;2024-01-10T13:48:44;2.10;99.90
7516;DHT22;3799;47.184;8.538;2024-01-10T13:51:11;2.10;99.90
7516;DHT22;3799;47.184;8.538;2024-01-10T13:53:39;2.10;99.90
7516;DHT22;3799;47.184;8.538;2024-01-10T13:56:06;2.20;99.90
7516;DHT22;3799;47.184;8.538;2024-01-10T13:58:34;2.10;99.90
7516;DHT22;3799;47.184;8.538;2024-01-10T14:01:01;2.20;99.90
7516;DHT22;3799;47.184;8.538;2024-01-10T14:03:31;2.10;99.90
7516;DHT22;3799;47.184;8.538;2024-01-10T14:05:59;2.10;99.90
7516;DHT22;3799;47.184;8.538;2024-01-10T14:08:27;2.00;99.90
7516;DHT22;3799;47.184;8.538;2024-01-10T14:10:58;2.00;99.90
7516;DHT22;3799;47.184;8.538;2024-01-10T14:13:25;2.20;99.90
7516;DHT22;3799;47.184;8.538;2024-01-10T14:15:53;2.10;99.90
7516;DHT22;3799;47.184;8.538;2024-01-10T14:18:21;2.10;99.90
7516;DHT22;3799;47.184;8.538;2024-01-10T14:20:48;2.00;99.90
7516;DHT22;3799;47.184;8.538;2024-01-10T14:23:17;2.10;99.90
7516;DHT22;3799;47.184;8.538;2024-01-10T14:25:47;2.00;99.90
7516;DHT22;3799;47.184;8.538;2024-01-10T14:28:14;2.00;99.90
7516;DHT22;3799;47.184;8.538;2024-01-10T14:30:41;2.00;99.90
7516;DHT22;3799;47.184;8.538;2024-01-10T14:33:09;2.10;99.90
7516;DHT22;3799;47.184;8.538;2024-01-10T14:35:37;1.90;99.90
7516;DHT22;3799;47.184;8.538;2024-01-10T14:38:04;1.80;99.90
7516;DHT22;3799;47.184;8.538;2024-01-10T14:40:31;1.90;99.90
7516;DHT22;3799;47.184;8.538;2024-01-10T14:42:58;1.60;99.90
7516;DHT22;3799;47.184;8.538;2024-01-10T14:45:25;1.70;99.90
7516;DHT22;3799;47.184;8.538;2024-01-10T14:47:53;1.70;99.90
7516;DHT22;3799;47.184;8.538;2024-01-10T14:50:20;2.00;99.90
7516;DHT22;3799;47.184;8.538;2024-01-10T14:52:51;1.80;99.90
7516;DHT22;3799;47.184;8.538;2024-01-10T14:55:18;1.60;99.90
7516;DHT22;3799;47.184;8.538;2024-01-10T14:57:46;1.70;99.90
7516;DHT22;3799;47.184;8.538;2024-01-10T15:00:15;1.60;99.90
7516;DHT22;3799;47.184;8.538;2024-01-10T15:02:42;1.50;99.90
7516;DHT22;3799;47.184;8.538;2024-01-10T15:05:11;1.60;99.90
7516;DHT22;3799;47.184;8.538;2024-01-10T15:07:39;1.30;99.90
7516;DHT22;3799;47.184;8.538;2024-01-10T15:10:07;1.30;99.90
7516;DHT22;3799;47.184;8.538;2024-01-10T15:12:34;1.30;99.90
7516;DHT22;3799;47.184;8.538;2024-01-10T15:15:01;1.30;99.90
7516;DHT22;3799;47.184;8.538;2024-01-10T15:17:29;1.30;99.90
7516;DHT22;3799;47.184;8.538;2024-01-10T15:19:56;1.20;99.90
7516;DHT22;3799;47.184;8.538;2024-01-10T15:22:23;1.20;99.90
7516;DHT22;3799;47.184;8.538;2024-01-10T15:24:50;1.20;99.90
7516;DHT22;3799;47.184;8.538;2024-01-10T15:27:18;1.00;99.90
7516;DHT22;3799;47.184;8.538;2024-01-10T15:29:48;1.00;99.90
7516;DHT22;3799;47.184;8.538;2024-01-10T15:32:25;1.10;99.90
7516;DHT22;3799;47.184;8.538;2024-01-10T15:34:53;1.00;99.90
7516;DHT22;3799;47.184;8.538;2024-01-10T15:37:20;1.00;99.90
7516;DHT22;3799;47.184;8.538;2024-01-10T15:39:47;1.00;99.90
7516;DHT22;3799;47.184;8.538;2024-01-10T15:42:16;1.10;99.90
7516;DHT22;3799;47.184;8.538;2024-01-10T15:44:43;0.90;99.90
7516;DHT22;3799;47.184;8.538;2024-01-10T15:47:10;1.00;99.90
7516;DHT22;3799;47.184;8.538;2024-01-10T15:49:38;0.70;99.90
7516;DHT22;3799;47.184;8.538;2024-01-10T15:52:07;0.80;99.90
7516;DHT22;3799;47.184;8.538;2024-01-10T15:54:34;0.90;99.90
7516;DHT22;3799;47.184;8.538;2024-01-10T15:57:05;0.80;99.90
7516;DHT22;3799;47.184;8.538;2024-01-10T15:59:33;0.60;99.90
7516;DHT22;3799;47.184;8.538;2024-01-10T16:02:00;0.90;99.90
7516;DHT22;3799;47.184;8.538;2024-01-10T16:04:28;1.00;99.90
7516;DHT22;3799;47.184;8.538;2024-01-10T16:06:55;0.90;99.90
7516;DHT22;3799;47.184;8.538;2024-01-10T16:09:23;0.70;99.90
7516;DHT22;3799;47.184;8.538;2024-01-10T16:11:51;0.80;99.90
7516;DHT22;3799;47.184;8.538;2024-01-10T16:14:18;0.90;99.90
7516;DHT22;3799;47.184;8.538;2024-01-10T16:16:45;0.70;99.90
7516;DHT22;3799;47.184;8.538;2024-01-10T16:19:13;0.80;99.90
7516;DHT22;3799;47.184;8.538;2024-01-10T16:21:42;0.60;99.90
7516;DHT22;3799;47.184;8.538;2024-01-10T16:24:09;0.70;99.90
7516;DHT22;3799;47.184;8.538;2024-01-10T16:26:37;0.80;99.90
7516;DHT22;3799;47.184;8.538;2024-01-10T16:29:04;0.70;99.90
7516;DHT22;3799;47.184;8.538;2024-01-10T16:31:31;0.70;99.90
7516;DHT22;3799;47.184;8.538;2024-01-10T16:33:59;0.70;99.90
7516;DHT22;3799;47.184;8.538;2024-01-10T16:36:26;0.60;99.90